Time;durP1;ratioP1;P1;durP2;ratioP2;P2;SDS_P1;SDS_P2;PMS_P1;PMS_P2;Temp;Humidity;BMP_temperature;BMP_pressure;BME280_temperature;BME280_humidity;BME280_pressure;Samples;Min_cycle;Max_cycle;Signal;HPM_P1;HPM_P2
2022/12/21 00:02:02;;;;;;;4.10;3.50;;;16.40;44.50;;;;;;5056154;28;20274;-68
2022/12/21 00:04:29;;;;;;;4.05;3.75;;;16.40;44.50;;;;;;5056037;28;20620;-68
2022/12/21 00:06:57;;;;;;;4.57;3.78;;;16.40;44.60;;;;;;5055851;28;20199;-68
2022/12/21 00:09:24;;;;;;;3.75;3.45;;;16.30;44.50;;;;;;5055766;28;20237;-68
2022/12/21 00:11:51;;;;;;;3.85;3.38;;;16.30;44.60;;;;;;5055864;28;20211;-68
2022/12/21 00:14:18;;;;;;;3.95;3.60;;;16.30;44.70;;;;;;5056936;28;20192;-68
2022/12/21 00:16:45;;;;;;;4.07;3.67;;;16.30;44.70;;;;;;5055518;28;20195;-68
2022/12/21 00:19:16;;;;;;;3.58;3.28;;;16.30;44.70;;;;;;5055579;28;20223;-68
2022/12/21 00:21:43;;;;;;;3.53;3.22;;;16.30;44.80;;;;;;5055903;28;20195;-68
2022/12/21 00:24:21;;;;;;;3.60;3.30;;;16.30;44.90;;;;;;5056865;28;20238;-68
2022/12/21 00:26:48;;;;;;;3.90;3.60;;;16.30;44.90;;;;;;5055610;28;20625;-68
2022/12/21 00:29:17;;;;;;;3.80;3.47;;;16.20;44.90;;;;;;5056861;28;20205;-68
2022/12/21 00:31:47;;;;;;;4.22;3.75;;;16.30;45.10;;;;;;5055776;28;20211;-68
2022/12/21 00:34:21;;;;;;;4.00;3.70;;;16.20;45.00;;;;;;5055507;28;20207;-68
2022/12/21 00:36:48;;;;;;;3.92;3.63;;;16.20;45.10;;;;;;5055646;28;20220;-68
2022/12/21 00:39:16;;;;;;;4.28;3.92;;;16.20;45.10;;;;;;5055524;28;20215;-68
2022/12/21 00:41:43;;;;;;;4.38;3.97;;;16.20;45.20;;;;;;5055019;28;20200;-68
2022/12/21 00:44:20;;;;;;;4.22;3.83;;;16.10;45.20;;;;;;5055475;28;20211;-68
2022/12/21 00:46:51;;;;;;;4.07;3.72;;;16.10;45.20;;;;;;5055907;28;20601;-68
2022/12/21 00:49:23;;;;;;;3.83;3.53;;;16.10;45.30;;;;;;5055585;28;20215;-68
2022/12/21 00:51:50;;;;;;;4.10;3.72;;;16.10;45.30;;;;;;5056494;28;20207;-68
2022/12/21 00:54:17;;;;;;;4.07;3.67;;;16.10;45.30;;;;;;5055280;28;20215;-68
2022/12/21 00:56:47;;;;;;;4.18;3.88;;;16.10;45.40;;;;;;5054850;28;20210;-68
2022/12/21 00:59:14;;;;;;;4.20;3.80;;;16.10;45.40;;;;;;5054993;28;20269;-68
2022/12/21 01:01:41;;;;;;;4.53;4.13;;;16.00;45.30;;;;;;5055157;28;20634;-68
2022/12/21 01:04:08;;;;;;;4.18;3.78;;;16.00;45.40;;;;;;5056017;28;20705;-67
2022/12/21 01:06:44;;;;;;;5.00;3.88;;;16.10;45.50;;;;;;5055096;28;20196;-67
2022/12/21 01:09:11;;;;;;;4.43;4.03;;;16.10;45.50;;;;;;5055987;28;20211;-67
2022/12/21 01:11:43;;;;;;;4.47;4.07;;;16.00;45.40;;;;;;5055125;28;20543;-67
2022/12/21 01:14:10;;;;;;;4.30;3.90;;;16.00;45.40;;;;;;5055058;28;20203;-67
2022/12/21 01:16:37;;;;;;;4.28;3.88;;;16.00;45.40;;;;;;5054795;28;20203;-67
2022/12/21 01:19:12;;;;;;;4.93;3.70;;;16.00;45.50;;;;;;5054542;28;20215;-67
2022/12/21 01:21:45;;;;;;;4.30;3.90;;;15.90;45.50;;;;;;5055783;28;20233;-67
2022/12/21 01:24:15;;;;;;;4.47;3.95;;;16.00;45.60;;;;;;5054531;28;20195;-67
2022/12/21 01:26:43;;;;;;;4.03;3.70;;;16.00;45.60;;;;;;5054391;28;20543;-67
2022/12/21 01:29:14;;;;;;;4.10;3.70;;;16.00;45.60;;;;;;5054358;28;20254;-67
2022/12/21 01:31:41;;;;;;;4.10;3.75;;;16.00;45.60;;;;;;5054239;28;20284;-67
2022/12/21 01:34:10;;;;;;;4.03;3.63;;;16.00;45.60;;;;;;5055115;28;20199;-69
2022/12/21 01:36:44;;;;;;;4.40;4.03;;;16.00;45.60;;;;;;5053948;28;20199;-68
2022/12/21 01:39:14;;;;;;;4.20;3.80;;;16.00;45.60;;;;;;5054136;28;20222;-68
2022/12/21 01:41:41;;;;;;;4.40;4.00;;;15.90;45.60;;;;;;5055346;28;20665;-68
2022/12/21 01:46:54;;;;;;;4.30;3.90;;;15.90;45.60;;;;;;5035491;28;20679;-70
2022/12/21 01:49:22;;;;;;;4.00;3.60;;;15.90;45.70;;;;;;5017633;28;20234;-69
2022/12/21 01:51:51;;;;;;;3.70;3.40;;;15.90;45.70;;;;;;5019029;28;20315;-69
2022/12/21 01:54:20;;;;;;;4.20;3.80;;;15.90;45.80;;;;;;5017167;28;20599;-69
2022/12/21 01:56:48;;;;;;;3.92;3.53;;;15.90;45.80;;;;;;5035325;28;20199;-69
2022/12/21 01:59:17;;;;;;;4.20;3.63;;;15.90;45.80;;;;;;5017274;28;20592;-69
2022/12/21 02:01:45;;;;;;;3.80;3.50;;;15.90;45.80;;;;;;5017241;28;20621;-69
2022/12/21 02:04:13;;;;;;;3.80;3.50;;;15.90;45.80;;;;;;5017021;28;20204;-69
2022/12/21 02:06:42;;;;;;;3.90;3.60;;;15.80;45.70;;;;;;5017726;28;20577;-69
2022/12/21 02:09:10;;;;;;;3.97;3.65;;;15.80;45.70;;;;;;5016723;28;20286;-69
2022/12/21 02:11:37;;;;;;;3.83;3.53;;;15.90;45.80;;;;;;5016594;28;20597;-69
2022/12/21 02:14:10;;;;;;;3.58;3.28;;;15.80;45.80;;;;;;5016810;28;20200;-70
2022/12/21 02:16:39;;;;;;;4.28;3.90;;;15.80;45.90;;;;;;5016635;28;20390;-70
2022/12/21 02:19:46;;;;;;;3.75;3.40;;;15.80;45.90;;;;;;5016470;28;20717;-69
2022/12/21 02:22:13;;;;;;;3.90;3.50;;;15.80;46.00;;;;;;5032779;28;20192;-69
2022/12/21 02:25:10;;;;;;;3.33;3.03;;;15.80;46.10;;;;;;5016423;28;20685;-69
2022/12/21 02:28:15;;;;;;;3.40;3.10;;;15.70;46.00;;;;;;5017077;28;20230;-69
2022/12/21 02:31:05;;;;;;;3.60;3.30;;;15.70;46.10;;;;;;5016316;28;20204;-69
2022/12/21 02:33:40;;;;;;;3.40;3.10;;;15.70;46.80;;;;;;5006447;28;20196;-69
2022/12/21 02:36:14;;;;;;;3.45;3.15;;;15.70;46.20;;;;;;5016034;28;20196;-69
2022/12/21 02:38:47;;;;;;;3.60;3.30;;;15.70;46.20;;;;;;5033167;28;20219;-69
2022/12/21 02:41:21;;;;;;;4.10;3.67;;;15.70;46.20;;;;;;5016490;28;20602;-69
2022/12/21 02:44:13;;;;;;;3.55;3.25;;;15.70;46.20;;;;;;5017025;28;20202;-69
2022/12/21 02:46:46;;;;;;;3.40;3.10;;;15.60;46.10;;;;;;5015923;28;20227;-69
2022/12/21 02:49:15;;;;;;;3.50;3.20;;;15.70;46.20;;;;;;5015780;28;20216;-69
2022/12/21 02:51:46;;;;;;;3.75;3.40;;;15.60;46.20;;;;;;5032259;28;20212;-69
2022/12/21 02:54:13;;;;;;;3.50;3.20;;;15.60;46.20;;;;;;5032826;28;20223;-69
2022/12/21 02:56:41;;;;;;;3.72;3.35;;;15.70;46.40;;;;;;5015659;28;20612;-69
2022/12/21 02:59:09;;;;;;;3.50;3.20;;;15.60;46.30;;;;;;5016204;28;20310;-69
2022/12/21 03:01:58;;;;;;;3.40;3.10;;;15.60;46.40;;;;;;5015831;28;20275;-69
2022/12/21 03:04:36;;;;;;;3.85;3.15;;;15.60;46.40;;;;;;5015705;28;20234;-69
2022/12/21 03:07:35;;;;;;;3.10;2.90;;;15.60;46.40;;;;;;5015490;28;20619;-69
2022/12/21 03:10:07;;;;;;;3.30;3.00;;;15.60;46.40;;;;;;5016198;28;20690;-69
2022/12/21 03:12:42;;;;;;;3.30;2.90;;;15.60;46.40;;;;;;5015682;28;20212;-69
2022/12/21 03:15:15;;;;;;;3.05;2.75;;;15.60;46.50;;;;;;5032223;28;20218;-69
2022/12/21 03:17:45;;;;;;;3.30;3.00;;;15.60;46.60;;;;;;5015936;28;20686;-69
2022/12/21 03:20:13;;;;;;;3.08;2.80;;;15.60;46.50;;;;;;5032932;28;20192;-69
2022/12/21 03:22:42;;;;;;;3.28;2.90;;;15.60;46.50;;;;;;5016073;28;20531;-69
2022/12/21 03:25:11;;;;;;;3.28;3.05;;;15.60;46.50;;;;;;5015677;28;20250;-69
2022/12/21 03:27:40;;;;;;;2.80;2.60;;;15.60;46.60;;;;;;5033363;28;20696;-69
2022/12/21 03:30:09;;;;;;;3.08;2.85;;;15.60;46.60;;;;;;5015736;28;20254;-69
2022/12/21 03:32:40;;;;;;;2.90;2.70;;;15.60;46.60;;;;;;5031798;28;20264;-69
2022/12/21 03:35:11;;;;;;;3.25;2.95;;;15.60;46.60;;;;;;5016538;28;20224;-69
2022/12/21 03:37:38;;;;;;;3.00;2.70;;;15.50;46.60;;;;;;5032011;28;20794;-69
2022/12/21 03:40:09;;;;;;;3.38;2.80;;;15.60;46.70;;;;;;5015462;28;20204;-70
2022/12/21 03:42:38;;;;;;;2.53;2.42;;;15.60;46.70;;;;;;5033235;28;20172;-70
2022/12/21 03:45:07;;;;;;;2.60;2.40;;;15.50;46.60;;;;;;5015507;28;20212;-70
2022/12/21 03:47:36;;;;;;;2.90;2.70;;;15.50;46.60;;;;;;5015997;28;20310;-70
2022/12/21 03:50:05;;;;;;;2.70;2.50;;;15.50;46.60;;;;;;5015718;28;20209;-70
2022/12/21 03:52:36;;;;;;;2.90;2.70;;;15.50;46.60;;;;;;5031665;28;20222;-70
2022/12/21 03:55:06;;;;;;;2.65;2.45;;;15.50;46.60;;;;;;5015757;28;20219;-70
2022/12/21 03:57:34;;;;;;;2.67;2.47;;;15.50;46.70;;;;;;5016009;28;20212;-70
2022/12/21 04:00:01;;;;;;;2.90;2.70;;;15.50;46.70;;;;;;5015803;28;20203;-70
2022/12/21 04:02:40;;;;;;;2.97;2.67;;;15.50;46.80;;;;;;5033450;28;20184;-70
2022/12/21 04:05:10;;;;;;;2.65;2.45;;;15.50;46.80;;;;;;5015426;28;20651;-70
2022/12/21 04:07:38;;;;;;;2.78;2.33;;;15.50;46.80;;;;;;5015490;28;20266;-70
2022/12/21 04:10:07;;;;;;;2.78;2.58;;;15.50;46.80;;;;;;5015724;28;20203;-70
2022/12/21 04:12:36;;;;;;;3.10;2.40;;;15.50;47.00;;;;;;5031889;28;20311;-70
2022/12/21 04:15:03;;;;;;;3.00;2.70;;;15.50;47.00;;;;;;5015276;28;20619;-70
2022/12/21 04:17:30;;;;;;;2.50;2.30;;;15.50;47.00;;;;;;5016502;28;20224;-70
2022/12/21 04:19:59;;;;;;;3.28;2.60;;;15.50;47.00;;;;;;5036930;28;20188;-70
2022/12/21 04:28:08;;;;;;;2.65;2.45;;;15.50;47.00;;;;;;5019785;28;20269;-70
2022/12/21 04:30:35;;;;;;;2.70;2.50;;;15.50;47.60;;;;;;5019283;28;20187;-70
2022/12/21 04:33:03;;;;;;;2.70;2.50;;;15.60;47.00;;;;;;5020452;28;20250;-70
2022/12/21 04:35:29;;;;;;;2.70;2.50;;;15.60;46.90;;;;;;5020169;28;20195;-70
2022/12/21 04:37:56;;;;;;;2.45;2.25;;;15.60;46.80;;;;;;5019034;28;20223;-70
2022/12/21 04:40:24;;;;;;;2.58;2.35;;;15.60;46.70;;;;;;5019160;28;20199;-70
2022/12/21 04:42:51;;;;;;;2.95;2.70;;;15.70;46.80;;;;;;5018652;28;20188;-70
2022/12/21 04:45:20;;;;;;;2.50;2.30;;;15.70;46.80;;;;;;5018307;28;20200;-70
2022/12/21 04:47:47;;;;;;;2.47;2.28;;;15.70;46.60;;;;;;5018296;28;20212;-70
2022/12/21 04:50:14;;;;;;;2.58;2.38;;;15.80;46.60;;;;;;5034568;28;20196;-70
2022/12/21 04:52:41;;;;;;;2.25;2.05;;;15.80;46.60;;;;;;5018125;28;20219;-70
2022/12/21 04:55:09;;;;;;;2.53;2.20;;;15.80;46.50;;;;;;5017956;28;20192;-70
2022/12/21 04:57:37;;;;;;;2.20;2.10;;;15.80;46.50;;;;;;5017800;28;20252;-70
2022/12/21 05:00:05;;;;;;;2.38;2.17;;;15.90;46.40;;;;;;5018123;28;20210;-70
2022/12/21 05:02:31;;;;;;;2.13;2.03;;;15.90;46.40;;;;;;5017987;28;20202;-70
2022/12/21 05:04:59;;;;;;;2.60;2.40;;;15.90;46.30;;;;;;5017944;28;20199;-70
2022/12/21 05:07:25;;;;;;;2.85;2.20;;;15.90;46.40;;;;;;5034452;28;20616;-70
2022/12/21 05:09:53;;;;;;;2.50;2.30;;;15.90;46.50;;;;;;5034168;28;20200;-70
2022/12/21 05:12:20;;;;;;;2.30;2.10;;;15.90;46.50;;;;;;5017759;28;20667;-70
2022/12/21 05:14:49;;;;;;;2.42;2.22;;;15.80;46.40;;;;;;5017665;28;20282;-70
2022/12/21 05:17:16;;;;;;;2.30;2.10;;;15.90;46.50;;;;;;5001334;28;20250;-70
2022/12/21 05:19:46;;;;;;;2.40;2.20;;;15.90;46.40;;;;;;5035490;28;20189;-70
2022/12/21 05:22:14;;;;;;;2.60;2.40;;;15.90;46.30;;;;;;5017658;28;20200;-70
2022/12/21 05:24:41;;;;;;;2.10;2.00;;;15.90;46.40;;;;;;5018186;28;20645;-69
2022/12/21 05:27:08;;;;;;;2.40;2.25;;;15.90;46.30;;;;;;5017471;28;20208;-70
2022/12/21 05:29:34;;;;;;;2.38;2.17;;;16.00;46.30;;;;;;5035193;28;20234;-71
2022/12/21 05:32:03;;;;;;;2.40;2.20;;;16.00;46.20;;;;;;5017292;28;20226;-70
2022/12/21 05:34:30;;;;;;;2.67;2.00;;;16.00;46.30;;;;;;5035150;28;20207;-70
2022/12/21 05:36:57;;;;;;;2.10;2.00;;;16.00;46.30;;;;;;5017620;28;20200;-70
2022/12/21 05:39:25;;;;;;;2.30;2.10;;;16.00;46.30;;;;;;5017645;28;20219;-70
2022/12/21 05:41:52;;;;;;;2.60;2.30;;;16.00;46.50;;;;;;5033759;28;20212;-69
2022/12/21 05:44:20;;;;;;;2.53;2.20;;;16.00;46.50;;;;;;5017623;28;20208;-69
2022/12/21 05:46:47;;;;;;;3.08;2.00;;;16.10;46.60;;;;;;5017920;28;20208;-70
2022/12/21 05:49:16;;;;;;;2.38;2.05;;;16.10;46.50;;;;;;5018759;28;20212;-70
2022/12/21 05:51:42;;;;;;;2.38;2.17;;;16.10;46.50;;;;;;5018553;28;20222;-70
2022/12/21 05:54:10;;;;;;;2.53;2.20;;;16.10;46.90;;;;;;5022212;28;20262;-69
2022/12/21 05:56:37;;;;;;;2.22;2.03;;;16.20;46.90;;;;;;5023406;28;20196;-69
2022/12/21 05:59:04;;;;;;;2.40;1.98;;;16.20;47.00;;;;;;5021050;28;20220;-69
2022/12/21 06:01:31;;;;;;;2.15;1.98;;;16.20;47.10;;;;;;5020880;28;20208;-69
2022/12/21 06:03:59;;;;;;;2.20;2.00;;;16.20;47.20;;;;;;5035749;28;20184;-69
2022/12/21 06:06:27;;;;;;;2.47;2.10;;;16.20;47.20;;;;;;5017399;28;20200;-69
2022/12/21 06:08:54;;;;;;;2.30;2.10;;;16.30;47.30;;;;;;5019358;28;20227;-69
2022/12/21 06:11:22;;;;;;;2.13;1.95;;;16.30;47.30;;;;;;5020377;28;20207;-69
2022/12/21 06:13:50;;;;;;;2.00;1.90;;;16.30;47.30;;;;;;5037497;28;20234;-69
2022/12/21 06:16:19;;;;;;;2.00;1.90;;;16.30;47.30;;;;;;5019333;28;20200;-68
2022/12/21 06:18:48;;;;;;;2.42;2.22;;;16.40;47.10;;;;;;5035411;28;20311;-68
2022/12/21 06:21:15;;;;;;;2.15;1.88;;;16.40;46.50;;;;;;5017599;28;20219;-69
2022/12/21 06:23:44;;;;;;;2.30;2.10;;;16.40;46.10;;;;;;5016909;28;20581;-69
2022/12/21 06:26:14;;;;;;;1.60;1.50;;;16.40;45.90;;;;;;5034654;28;20188;-69
2022/12/21 06:28:41;;;;;;;1.70;1.60;;;16.50;45.70;;;;;;5016686;28;20619;-69
2022/12/21 06:31:09;;;;;;;1.80;1.70;;;16.50;45.40;;;;;;5034417;28;20322;-68
2022/12/21 06:33:36;;;;;;;2.50;2.08;;;16.60;45.40;;;;;;5016626;28;20265;-68
2022/12/21 06:36:04;;;;;;;1.80;1.70;;;16.60;45.40;;;;;;5016441;28;20199;-68
2022/12/21 06:38:31;;;;;;;2.05;1.95;;;16.60;45.30;;;;;;5033885;28;20218;-68
2022/12/21 06:41:01;;;;;;;2.03;1.92;;;16.60;45.30;;;;;;5015593;28;20206;-68
2022/12/21 06:43:29;;;;;;;2.05;1.90;;;16.60;45.20;;;;;;5016076;28;20196;-68
2022/12/21 06:45:57;;;;;;;1.88;1.77;;;16.60;45.30;;;;;;5016161;28;20218;-68
2022/12/21 06:48:24;;;;;;;2.10;1.90;;;16.50;45.20;;;;;;5016529;28;20592;-68
2022/12/21 06:50:53;;;;;;;2.05;1.95;;;16.60;45.40;;;;;;5033898;28;20200;-68
2022/12/21 06:53:21;;;;;;;3.58;1.80;;;16.60;45.60;;;;;;5015969;28;20226;-68
2022/12/21 06:55:48;;;;;;;1.73;1.63;;;16.50;45.60;;;;;;5015804;28;20196;-68
2022/12/21 06:58:16;;;;;;;2.05;1.85;;;16.50;45.60;;;;;;5015928;28;20717;-68
2022/12/21 07:00:43;;;;;;;3.08;1.77;;;16.60;45.70;;;;;;5016142;28;20666;-68
2022/12/21 07:03:10;;;;;;;1.80;1.70;;;16.60;45.80;;;;;;5016096;28;20192;-68
2022/12/21 07:05:38;;;;;;;1.75;1.65;;;16.60;45.80;;;;;;5016497;28;20234;-68
2022/12/21 07:08:05;;;;;;;1.85;1.75;;;16.60;45.90;;;;;;5032586;28;20220;-68
2022/12/21 07:10:32;;;;;;;1.42;1.33;;;16.60;45.80;;;;;;5034150;28;20298;-68
2022/12/21 07:12:59;;;;;;;2.13;1.90;;;16.60;45.80;;;;;;5034180;28;20219;-68
2022/12/21 07:15:27;;;;;;;1.70;1.60;;;16.60;45.80;;;;;;5017031;28;20192;-69
2022/12/21 07:17:54;;;;;;;1.70;1.60;;;16.60;45.80;;;;;;5017434;28;20269;-68
2022/12/21 07:20:21;;;;;;;1.60;1.50;;;16.70;45.80;;;;;;5034176;28;20548;-68
2022/12/21 07:22:48;;;;;;;1.80;1.70;;;16.70;45.80;;;;;;5016636;28;20196;-68
2022/12/21 07:25:15;;;;;;;1.75;1.65;;;16.70;45.80;;;;;;5017286;28;20298;-68
2022/12/21 07:27:42;;;;;;;1.60;1.50;;;16.70;45.70;;;;;;5015935;28;20216;-68
2022/12/21 07:30:10;;;;;;;1.60;1.50;;;16.70;45.70;;;;;;5016548;28;20521;-68
2022/12/21 07:32:39;;;;;;;1.83;1.70;;;16.70;45.80;;;;;;5015798;28;20220;-68
2022/12/21 07:35:06;;;;;;;1.77;1.67;;;16.70;45.70;;;;;;5015705;28;20188;-68
2022/12/21 07:37:34;;;;;;;1.73;1.63;;;16.80;45.70;;;;;;5015966;28;20219;-68
2022/12/21 07:40:02;;;;;;;1.70;1.60;;;16.80;45.70;;;;;;5033285;28;20196;-68
2022/12/21 07:42:29;;;;;;;1.83;1.65;;;16.80;45.60;;;;;;5016062;28;20193;-68
2022/12/21 07:45:04;;;;;;;1.60;1.50;;;16.80;45.70;;;;;;5017016;28;20210;-68
2022/12/21 07:47:41;;;;;;;1.73;1.63;;;16.80;45.70;;;;;;5015450;28;20262;-68
2022/12/21 07:50:08;;;;;;;1.70;1.60;;;16.80;45.60;;;;;;5015466;28;20204;-68
2022/12/21 07:52:36;;;;;;;1.70;1.60;;;16.80;45.60;;;;;;5019026;28;20206;-68
2022/12/21 07:55:03;;;;;;;2.03;1.77;;;16.90;45.60;;;;;;5036961;28;20275;-69
2022/12/21 07:57:31;;;;;;;2.00;1.60;;;16.80;45.40;;;;;;5036644;28;20780;-69
2022/12/21 07:59:58;;;;;;;1.63;1.52;;;16.90;45.50;;;;;;5035696;28;20283;-69
2022/12/21 08:02:26;;;;;;;1.73;1.63;;;16.90;45.60;;;;;;5037041;28;20195;-68
2022/12/21 08:04:55;;;;;;;1.80;1.70;;;16.90;45.60;;;;;;5018861;28;20570;-68
2022/12/21 08:07:22;;;;;;;1.73;1.60;;;16.90;45.60;;;;;;5018665;28;20196;-68
2022/12/21 08:09:49;;;;;;;2.03;1.65;;;16.90;45.40;;;;;;5018795;28;20196;-68
2022/12/21 08:12:16;;;;;;;1.52;1.42;;;17.00;45.50;;;;;;5019265;28;20206;-68
2022/12/21 08:14:43;;;;;;;1.88;1.70;;;17.00;45.40;;;;;;5018643;28;20212;-68
2022/12/21 08:17:10;;;;;;;1.80;1.70;;;17.00;45.50;;;;;;5019060;28;20659;-68
2022/12/21 08:19:37;;;;;;;1.65;1.55;;;17.10;45.50;;;;;;5018665;28;20192;-68
2022/12/21 08:22:05;;;;;;;2.45;1.60;;;17.00;45.30;;;;;;5018918;28;20196;-68
2022/12/21 08:24:33;;;;;;;1.70;1.60;;;17.10;45.30;;;;;;5036074;28;20188;-68
2022/12/21 08:27:00;;;;;;;2.63;1.85;;;17.10;45.30;;;;;;5034744;28;20227;-68
2022/12/21 08:29:27;;;;;;;4.25;3.95;;;17.10;45.20;;;;;;5035952;28;20765;-68
2022/12/21 08:31:54;;;;;;;5.07;4.63;;;17.20;45.20;;;;;;5018368;28;20200;-68
2022/12/21 08:34:21;;;;;;;7.35;6.75;;;17.20;45.40;;;;;;5018104;28;20250;-68
2022/12/21 08:36:48;;;;;;;6.53;6.05;;;17.10;45.30;;;;;;5034782;28;20200;-68
2022/12/21 08:39:16;;;;;;;5.20;4.80;;;17.10;45.30;;;;;;5018387;28;20667;-68
2022/12/21 08:41:43;;;;;;;3.92;3.63;;;17.10;45.50;;;;;;5018124;28;20279;-68
2022/12/21 08:44:11;;;;;;;3.55;3.25;;;17.10;45.50;;;;;;5018227;28;20202;-68
2022/12/21 08:46:38;;;;;;;2.60;2.40;;;17.10;45.70;;;;;;5019071;28;20200;-68
2022/12/21 08:49:05;;;;;;;2.40;2.20;;;17.10;45.70;;;;;;5034492;28;20310;-68
2022/12/21 08:51:32;;;;;;;2.30;2.13;;;17.10;45.70;;;;;;5017805;28;20188;-68
2022/12/21 08:53:59;;;;;;;2.10;2.00;;;17.10;45.70;;;;;;5034517;28;20674;-68
2022/12/21 08:56:28;;;;;;;2.25;1.80;;;17.10;45.60;;;;;;5001592;28;20223;-68
2022/12/21 08:58:55;;;;;;;3.35;1.95;;;17.20;45.60;;;;;;5035483;28;20220;-68
2022/12/21 09:01:23;;;;;;;2.20;2.00;;;17.20;45.60;;;;;;5017792;28;20196;-68
2022/12/21 09:03:50;;;;;;;1.90;1.80;;;17.20;45.50;;;;;;5034860;28;20234;-68
2022/12/21 09:06:17;;;;;;;2.00;1.80;;;17.20;45.40;;;;;;5017757;28;20196;-68
2022/12/21 09:08:44;;;;;;;1.90;1.80;;;17.20;45.40;;;;;;5017951;28;20227;-68
2022/12/21 09:11:12;;;;;;;1.63;1.52;;;17.20;45.40;;;;;;5018541;28;20192;-68
2022/12/21 09:13:40;;;;;;;1.90;1.80;;;17.30;45.40;;;;;;5017951;28;20568;-68
2022/12/21 09:16:12;;;;;;;1.70;1.60;;;17.30;45.30;;;;;;5018714;28;20212;-69
2022/12/21 09:18:39;;;;;;;2.03;1.88;;;17.30;45.20;;;;;;5035386;28;20209;-69
2022/12/21 09:21:06;;;;;;;3.38;1.77;;;17.30;45.20;;;;;;5017518;28;20270;-69
2022/12/21 09:23:33;;;;;;;3.42;3.22;;;17.40;45.40;;;;;;5017710;28;20196;-69
2022/12/21 09:26:01;;;;;;;3.58;2.55;;;17.30;45.40;;;;;;5034090;28;20204;-69
2022/12/21 09:28:28;;;;;;;2.80;2.60;;;17.40;45.40;;;;;;5017932;28;20216;-69
2022/12/21 09:30:57;;;;;;;2.60;2.20;;;17.40;45.30;;;;;;5035956;28;20595;-69
2022/12/21 09:33:24;;;;;;;2.65;2.28;;;17.40;45.30;;;;;;5017449;28;20215;-69
2022/12/21 09:35:52;;;;;;;2.70;2.50;;;17.40;45.30;;;;;;5017993;28;20192;-69
2022/12/21 09:38:19;;;;;;;3.00;2.80;;;17.40;45.30;;;;;;5035582;28;20212;-69
2022/12/21 09:40:47;;;;;;;2.80;2.50;;;17.40;45.20;;;;;;5018118;28;20210;-69
2022/12/21 09:43:17;;;;;;;3.20;2.35;;;17.50;45.30;;;;;;5034421;28;20253;-69
2022/12/21 09:45:50;;;;;;;2.00;1.90;;;17.40;45.40;;;;;;5034624;28;20753;-69
2022/12/21 09:48:21;;;;;;;2.60;2.40;;;17.50;45.30;;;;;;5034422;28;20219;-69
2022/12/21 09:50:50;;;;;;;2.35;2.15;;;17.50;45.40;;;;;;5035616;28;20291;-69
2022/12/21 09:53:19;;;;;;;2.40;2.20;;;17.50;45.50;;;;;;5017488;28;20208;-69
2022/12/21 09:55:47;;;;;;;2.65;2.45;;;17.50;45.30;;;;;;5035661;28;20230;-69
2022/12/21 09:58:15;;;;;;;2.40;2.20;;;17.60;45.20;;;;;;5018625;28;20270;-69
2022/12/21 10:00:43;;;;;;;2.70;2.50;;;17.60;45.00;;;;;;5019810;28;20207;-69
2022/12/21 10:03:49;;;;;;;2.28;2.08;;;17.70;45.20;;;;;;5034285;28;20200;-69
2022/12/21 10:06:24;;;;;;;2.25;2.03;;;17.70;45.20;;;;;;4991132;28;20567;-69
2022/12/21 10:09:03;;;;;;;2.13;1.90;;;17.70;45.00;;;;;;5017222;28;20219;-69
2022/12/21 10:11:38;;;;;;;2.00;1.90;;;17.70;45.00;;;;;;5033667;28;20234;-69
2022/12/21 10:14:10;;;;;;;1.90;1.80;;;17.70;44.90;;;;;;5017281;28;20311;-69
2022/12/21 10:16:41;;;;;;;1.98;1.88;;;17.70;44.90;;;;;;5034056;28;20204;-69
2022/12/21 10:19:11;;;;;;;2.05;1.95;;;17.80;44.90;;;;;;5016741;28;20230;-69
2022/12/21 10:21:44;;;;;;;1.90;1.80;;;17.80;44.90;;;;;;5034805;28;20180;-69
2022/12/21 10:24:17;;;;;;;1.90;1.80;;;17.80;44.90;;;;;;5033181;28;20254;-69
2022/12/21 10:26:44;;;;;;;1.80;1.70;;;17.90;44.90;;;;;;5033079;28;20196;-69
2022/12/21 10:29:13;;;;;;;2.25;1.75;;;17.80;44.90;;;;;;5033661;28;20227;-69
2022/12/21 10:31:42;;;;;;;1.83;1.73;;;17.90;44.80;;;;;;5016679;28;20603;-69
2022/12/21 10:34:15;;;;;;;1.60;1.50;;;17.90;44.80;;;;;;5017044;28;20216;-69
2022/12/21 10:36:43;;;;;;;1.83;1.60;;;17.90;44.90;;;;;;5033876;28;20223;-69
2022/12/21 10:39:12;;;;;;;1.80;1.70;;;17.90;44.90;;;;;;5016401;28;20236;-69
2022/12/21 10:41:40;;;;;;;1.65;1.55;;;17.90;44.90;;;;;;5034031;28;20192;-69
2022/12/21 10:44:09;;;;;;;1.67;1.58;;;17.90;44.90;;;;;;5016514;28;20205;-69
2022/12/21 10:46:37;;;;;;;1.73;1.63;;;18.00;45.00;;;;;;5016433;28;20204;-69
2022/12/21 10:49:14;;;;;;;1.70;1.60;;;18.00;45.00;;;;;;5015990;28;20663;-69
2022/12/21 10:51:43;;;;;;;1.73;1.63;;;18.00;45.00;;;;;;5033881;28;20183;-68
2022/12/21 10:54:10;;;;;;;1.85;1.75;;;18.00;44.90;;;;;;5016625;28;20613;-68
2022/12/21 10:56:41;;;;;;;1.50;1.40;;;18.10;44.80;;;;;;5032570;28;20611;-69
2022/12/21 10:59:16;;;;;;;1.75;1.60;;;18.10;44.80;;;;;;5033668;28;20724;-69
2022/12/21 11:01:44;;;;;;;2.13;1.60;;;18.20;44.80;;;;;;5033816;28;20211;-69
2022/12/21 11:04:13;;;;;;;1.58;1.48;;;18.20;44.60;;;;;;5033031;28;20185;-69
2022/12/21 11:06:43;;;;;;;1.60;1.50;;;18.20;44.90;;;;;;5033599;28;20180;-69
2022/12/21 11:09:31;;;;;;;1.80;1.45;;;18.20;45.50;;;;;;5033810;28;20215;-69
2022/12/21 11:11:58;;;;;;;1.60;1.50;;;18.30;44.90;;;;;;5016369;28;20191;-69
2022/12/21 11:14:26;;;;;;;1.60;1.50;;;18.20;44.60;;;;;;5015763;28;20223;-69
2022/12/21 11:16:53;;;;;;;1.45;1.45;;;18.30;44.60;;;;;;5015770;28;20199;-69
2022/12/21 11:19:21;;;;;;;1.70;1.60;;;18.30;44.50;;;;;;5015671;28;20274;-69
2022/12/21 11:21:50;;;;;;;1.60;1.50;;;18.40;44.60;;;;;;5015587;28;20192;-69
2022/12/21 11:24:20;;;;;;;1.50;1.40;;;18.40;44.50;;;;;;5015942;28;20184;-69
2022/12/21 11:26:49;;;;;;;2.40;1.67;;;18.40;44.60;;;;;;5034880;28;20230;-69
2022/12/21 11:29:24;;;;;;;2.03;1.65;;;18.40;44.50;;;;;;5019558;28;20216;-69
2022/12/21 11:31:51;;;;;;;1.60;1.50;;;18.50;44.60;;;;;;5019474;28;20196;-69
2022/12/21 11:34:21;;;;;;;1.75;1.65;;;18.40;44.60;;;;;;5019452;28;20231;-69
2022/12/21 11:36:56;;;;;;;1.60;1.50;;;18.50;44.50;;;;;;5019311;28;20200;-69
2022/12/21 11:39:24;;;;;;;1.73;1.63;;;18.60;44.50;;;;;;5019585;28;20247;-69
2022/12/21 11:41:52;;;;;;;1.52;1.42;;;18.50;44.40;;;;;;5019627;28;20655;-69
2022/12/21 11:44:23;;;;;;;1.60;1.50;;;18.60;44.60;;;;;;5019506;28;20193;-69
2022/12/21 11:46:54;;;;;;;1.60;1.50;;;18.60;44.40;;;;;;5019404;28;20208;-69
2022/12/21 11:50:00;;;;;;;2.22;1.52;;;18.60;44.40;;;;;;5035956;28;20228;-69
2022/12/21 11:52:35;;;;;;;1.80;1.70;;;18.60;44.20;;;;;;5009479;28;20241;-69
2022/12/21 11:55:05;;;;;;;2.33;2.13;;;18.70;44.10;;;;;;5019621;28;20213;-69
2022/12/21 11:57:37;;;;;;;2.17;1.98;;;18.70;44.20;;;;;;5036159;28;20227;-69
2022/12/21 12:00:07;;;;;;;2.08;1.90;;;18.70;44.20;;;;;;5021259;28;20263;-69
2022/12/21 12:03:09;;;;;;;1.85;1.65;;;18.70;44.20;;;;;;5038434;28;20187;-69
2022/12/21 12:05:41;;;;;;;1.70;1.60;;;18.80;44.20;;;;;;5003337;28;20184;-69
2022/12/21 12:08:11;;;;;;;2.45;1.60;;;18.80;44.10;;;;;;5037470;28;20262;-69
2022/12/21 12:11:05;;;;;;;1.80;1.70;;;18.80;43.80;;;;;;5037126;28;20180;-69
2022/12/21 12:13:45;;;;;;;1.70;1.60;;;18.80;43.70;;;;;;5017270;28;20192;-69
2022/12/21 12:16:16;;;;;;;1.58;1.48;;;18.90;43.80;;;;;;5036831;28;20198;-69
2022/12/21 12:18:50;;;;;;;1.63;1.52;;;18.90;43.80;;;;;;5019063;28;20228;-69
2022/12/21 12:21:30;;;;;;;1.50;1.40;;;18.90;43.80;;;;;;5037123;28;20176;-69
2022/12/21 12:24:06;;;;;;;1.50;1.40;;;18.90;44.00;;;;;;5019866;28;20196;-69
2022/12/21 12:26:37;;;;;;;1.60;1.50;;;19.00;44.00;;;;;;5019120;28;20192;-69
2022/12/21 12:29:25;;;;;;;1.40;1.30;;;19.00;43.90;;;;;;5018959;28;20652;-69
2022/12/21 12:32:02;;;;;;;1.50;1.40;;;19.00;43.70;;;;;;5019414;28;20197;-69
2022/12/21 12:34:56;;;;;;;1.60;1.50;;;19.00;43.80;;;;;;5036626;28;20199;-69
2022/12/21 12:37:29;;;;;;;1.77;1.50;;;19.00;44.10;;;;;;5019855;28;20611;-69
2022/12/21 12:40:02;;;;;;;1.80;1.70;;;19.00;43.90;;;;;;5019699;28;20321;-69
2022/12/21 12:42:32;;;;;;;1.83;1.55;;;19.00;43.70;;;;;;5019133;28;20199;-68
2022/12/21 12:45:04;;;;;;;1.80;1.50;;;19.00;44.00;;;;;;5018589;28;20196;-68
2022/12/21 12:47:37;;;;;;;1.70;1.60;;;19.00;44.00;;;;;;5018749;28;20228;-68
2022/12/21 12:50:21;;;;;;;1.70;1.60;;;19.00;44.10;;;;;;5019382;28;20200;-68
2022/12/21 12:52:58;;;;;;;2.15;1.67;;;19.00;44.00;;;;;;5018379;28;20203;-68
2022/12/21 12:55:29;;;;;;;2.20;2.00;;;19.10;44.10;;;;;;5035601;28;20246;-68
2022/12/21 12:58:00;;;;;;;2.10;1.80;;;19.00;43.90;;;;;;5018264;28;20215;-68
2022/12/21 13:00:27;;;;;;;1.88;1.77;;;19.10;44.20;;;;;;5018836;28;20542;-68
2022/12/21 13:02:59;;;;;;;1.90;1.70;;;19.10;44.00;;;;;;5017821;28;20250;-68
2022/12/21 13:05:35;;;;;;;1.63;1.52;;;19.10;44.00;;;;;;5018499;28;20196;-69
2022/12/21 13:08:08;;;;;;;1.45;1.35;;;19.00;44.10;;;;;;5018049;28;20269;-69
2022/12/21 13:10:41;;;;;;;1.60;1.50;;;19.00;44.20;;;;;;5017173;28;20200;-69
2022/12/21 13:13:12;;;;;;;1.50;1.40;;;18.90;44.40;;;;;;5017761;28;20200;-69